sensor_id;sensor_type;location;lat;lon;timestamp;pressure;altitude;pressure_sealevel;temperature;humidity
20909;BME280;10614;53.198;6.570;2022-12-18T00:00:47;102864.09;;;-3.11;100.00
20909;BME280;10614;53.198;6.570;2022-12-18T00:02:49;102856.28;;;-3.12;100.00
20909;BME280;10614;53.198;6.570;2022-12-18T00:04:51;102855.38;;;-3.13;100.00
20909;BME280;10614;53.198;6.570;2022-12-18T00:06:54;102852.69;;;-3.16;100.00
20909;BME280;10614;53.198;6.570;2022-12-18T00:08:57;102857.66;;;-3.19;100.00
20909;BME280;10614;53.198;6.570;2022-12-18T00:11:03;102854.22;;;-3.20;100.00
20909;BME280;10614;53.198;6.570;2022-12-18T00:13:05;102863.78;;;-3.17;100.00
20909;BME280;10614;53.198;6.570;2022-12-18T00:15:07;102865.56;;;-3.16;100.00
20909;BME280;10614;53.198;6.570;2022-12-18T00:17:09;102859.50;;;-3.16;100.00
20909;BME280;10614;53.198;6.570;2022-12-18T00:19:12;102862.03;;;-3.18;100.00
20909;BME280;10614;53.198;6.570;2022-12-18T00:21:14;102856.03;;;-3.17;100.00
20909;BME280;10614;53.198;6.570;2022-12-18T00:23:18;102863.63;;;-3.20;100.00
20909;BME280;10614;53.198;6.570;2022-12-18T00:25:19;102865.47;;;-3.17;100.00
20909;BME280;10614;53.198;6.570;2022-12-18T00:27:21;102858.72;;;-3.15;100.00
20909;BME280;10614;53.198;6.570;2022-12-18T00:29:23;102852.59;;;-3.17;100.00
20909;BME280;10614;53.198;6.570;2022-12-18T00:31:25;102851.78;;;-3.16;100.00
20909;BME280;10614;53.198;6.570;2022-12-18T00:33:27;102844.78;;;-3.19;100.00
20909;BME280;10614;53.198;6.570;2022-12-18T00:35:28;102853.47;;;-3.17;100.00
20909;BME280;10614;53.198;6.570;2022-12-18T00:37:30;102856.78;;;-3.20;100.00
20909;BME280;10614;53.198;6.570;2022-12-18T00:39:33;102859.44;;;-3.18;100.00
20909;BME280;10614;53.198;6.570;2022-12-18T00:41:35;102862.75;;;-3.21;100.00
20909;BME280;10614;53.198;6.570;2022-12-18T00:43:54;102854.81;;;-3.25;100.00
20909;BME280;10614;53.198;6.570;2022-12-18T00:45:55;102866.78;;;-3.26;100.00
20909;BME280;10614;53.198;6.570;2022-12-18T00:47:57;102868.41;;;-3.28;100.00
20909;BME280;10614;53.198;6.570;2022-12-18T00:49:59;102876.19;;;-3.26;100.00
20909;BME280;10614;53.198;6.570;2022-12-18T00:51:59;102877.06;;;-3.26;100.00
20909;BME280;10614;53.198;6.570;2022-12-18T00:54:01;102873.47;;;-3.29;100.00
20909;BME280;10614;53.198;6.570;2022-12-18T00:56:05;102880.38;;;-3.28;100.00
20909;BME280;10614;53.198;6.570;2022-12-18T00:58:06;102865.75;;;-3.29;100.00
20909;BME280;10614;53.198;6.570;2022-12-18T01:00:10;102871.88;;;-3.27;100.00
20909;BME280;10614;53.198;6.570;2022-12-18T01:02:12;102864.94;;;-3.28;100.00
20909;BME280;10614;53.198;6.570;2022-12-18T01:04:14;102871.69;;;-3.30;100.00
20909;BME280;10614;53.198;6.570;2022-12-18T01:06:16;102859.56;;;-3.33;100.00
20909;BME280;10614;53.198;6.570;2022-12-18T01:08:18;102863.81;;;-3.33;100.00
20909;BME280;10614;53.198;6.570;2022-12-18T01:10:20;102867.22;;;-3.34;100.00
20909;BME280;10614;53.198;6.570;2022-12-18T01:12:23;102865.53;;;-3.34;100.00
20909;BME280;10614;53.198;6.570;2022-12-18T01:14:24;102874.94;;;-3.34;100.00
20909;BME280;10614;53.198;6.570;2022-12-18T01:16:26;102877.53;;;-3.34;100.00
20909;BME280;10614;53.198;6.570;2022-12-18T01:18:28;102878.41;;;-3.34;100.00
20909;BME280;10614;53.198;6.570;2022-12-18T01:20:30;102872.38;;;-3.34;100.00
20909;BME280;10614;53.198;6.570;2022-12-18T01:22:33;102876.56;;;-3.36;100.00
20909;BME280;10614;53.198;6.570;2022-12-18T01:24:35;102885.16;;;-3.36;100.00
20909;BME280;10614;53.198;6.570;2022-12-18T01:26:37;102887.75;;;-3.36;100.00
20909;BME280;10614;53.198;6.570;2022-12-18T01:28:41;102887.66;;;-3.37;100.00
20909;BME280;10614;53.198;6.570;2022-12-18T01:30:42;102891.94;;;-3.38;100.00
20909;BME280;10614;53.198;6.570;2022-12-18T01:32:44;102893.53;;;-3.40;100.00
20909;BME280;10614;53.198;6.570;2022-12-18T01:34:46;102891.69;;;-3.43;100.00
20909;BME280;10614;53.198;6.570;2022-12-18T01:36:47;102889.84;;;-3.45;100.00
20909;BME280;10614;53.198;6.570;2022-12-18T01:38:49;102897.56;;;-3.45;100.00
20909;BME280;10614;53.198;6.570;2022-12-18T01:40:56;102897.44;;;-3.48;100.00
20909;BME280;10614;53.198;6.570;2022-12-18T01:42:58;102899.81;;;-3.51;100.00
20909;BME280;10614;53.198;6.570;2022-12-18T01:45:08;102897.19;;;-3.53;100.00
20909;BME280;10614;53.198;6.570;2022-12-18T01:47:27;102896.22;;;-3.55;100.00
20909;BME280;10614;53.198;6.570;2022-12-18T01:49:29;102885.69;;;-3.59;100.00
20909;BME280;10614;53.198;6.570;2022-12-18T01:51:31;102886.72;;;-3.56;100.00
20909;BME280;10614;53.198;6.570;2022-12-18T01:53:33;102896.13;;;-3.56;100.00
20909;BME280;10614;53.198;6.570;2022-12-18T01:55:37;102897.75;;;-3.58;100.00
20909;BME280;10614;53.198;6.570;2022-12-18T01:57:40;102896.00;;;-3.59;100.00
20909;BME280;10614;53.198;6.570;2022-12-18T01:59:45;102901.06;;;-3.61;100.00
20909;BME280;10614;53.198;6.570;2022-12-18T02:01:50;102888.13;;;-3.63;100.00
20909;BME280;10614;53.198;6.570;2022-12-18T02:03:52;102897.50;;;-3.63;100.00
20909;BME280;10614;53.198;6.570;2022-12-18T02:05:57;102897.50;;;-3.63;100.00
20909;BME280;10614;53.198;6.570;2022-12-18T02:08:06;102900.91;;;-3.64;100.00
20909;BME280;10614;53.198;6.570;2022-12-18T02:10:15;102906.88;;;-3.65;100.00
20909;BME280;10614;53.198;6.570;2022-12-18T02:12:23;102914.59;;;-3.65;100.00
20909;BME280;10614;53.198;6.570;2022-12-18T02:14:27;102916.22;;;-3.67;100.00
20909;BME280;10614;53.198;6.570;2022-12-18T02:16:39;102906.47;;;-3.73;100.00
20909;BME280;10614;53.198;6.570;2022-12-18T02:18:47;102913.31;;;-3.73;100.00
20909;BME280;10614;53.198;6.570;2022-12-18T02:20:55;102907.19;;;-3.75;100.00
20909;BME280;10614;53.198;6.570;2022-12-18T02:23:20;102906.22;;;-3.77;100.00
20909;BME280;10614;53.198;6.570;2022-12-18T02:25:37;102906.16;;;-3.79;100.00
20909;BME280;10614;53.198;6.570;2022-12-18T02:27:45;102897.38;;;-3.83;100.00
20909;BME280;10614;53.198;6.570;2022-12-18T02:29:50;102899.09;;;-3.83;100.00
20909;BME280;10614;53.198;6.570;2022-12-18T02:31:54;102890.38;;;-3.85;100.00
20909;BME280;10614;53.198;6.570;2022-12-18T02:34:00;102899.81;;;-3.86;100.00
20909;BME280;10614;53.198;6.570;2022-12-18T02:36:04;102895.38;;;-3.88;100.00
20909;BME280;10614;53.198;6.570;2022-12-18T02:38:07;102903.84;;;-3.91;100.00
20909;BME280;10614;53.198;6.570;2022-12-18T02:40:10;102898.59;;;-3.92;100.00
20909;BME280;10614;53.198;6.570;2022-12-18T02:42:13;102894.97;;;-3.96;100.00
20909;BME280;10614;53.198;6.570;2022-12-18T02:44:17;102902.78;;;-3.94;100.00
20909;BME280;10614;53.198;6.570;2022-12-18T02:46:31;102891.47;;;-3.98;100.00
20909;BME280;10614;53.198;6.570;2022-12-18T02:48:34;102885.16;;;-4.03;100.00
20909;BME280;10614;53.198;6.570;2022-12-18T02:50:44;102885.16;;;-4.03;100.00
20909;BME280;10614;53.198;6.570;2022-12-18T02:52:55;102881.72;;;-4.04;100.00
20909;BME280;10614;53.198;6.570;2022-12-18T02:55:11;102888.47;;;-4.06;100.00
20909;BME280;10614;53.198;6.570;2022-12-18T02:57:19;102883.16;;;-4.09;100.00
20909;BME280;10614;53.198;6.570;2022-12-18T02:59:30;102887.34;;;-4.11;100.00
20909;BME280;10614;53.198;6.570;2022-12-18T03:01:37;102882.19;;;-4.11;100.00
20909;BME280;10614;53.198;6.570;2022-12-18T03:03:42;102880.44;;;-4.12;100.00
20909;BME280;10614;53.198;6.570;2022-12-18T03:05:48;102879.38;;;-4.15;100.00
20909;BME280;10614;53.198;6.570;2022-12-18T03:07:56;102878.34;;;-4.19;100.00
20909;BME280;10614;53.198;6.570;2022-12-18T03:09:58;102887.72;;;-4.19;100.00
20909;BME280;10614;53.198;6.570;2022-12-18T03:12:04;102895.44;;;-4.19;100.00
20909;BME280;10614;53.198;6.570;2022-12-18T03:14:26;102895.19;;;-4.24;100.00
20909;BME280;10614;53.198;6.570;2022-12-18T03:16:31;102883.88;;;-4.28;100.00
20909;BME280;10614;53.198;6.570;2022-12-18T03:18:35;102889.81;;;-4.29;100.00
20909;BME280;10614;53.198;6.570;2022-12-18T03:20:41;102896.56;;;-4.31;100.00
20909;BME280;10614;53.198;6.570;2022-12-18T03:22:47;102893.09;;;-4.31;100.00
20909;BME280;10614;53.198;6.570;2022-12-18T03:24:51;102896.56;;;-4.31;100.00
20909;BME280;10614;53.198;6.570;2022-12-18T03:26:59;102890.47;;;-4.33;100.00
20909;BME280;10614;53.198;6.570;2022-12-18T03:29:06;102880.91;;;-4.35;100.00
20909;BME280;10614;53.198;6.570;2022-12-18T03:31:11;102883.53;;;-4.34;100.00
20909;BME280;10614;53.198;6.570;2022-12-18T03:33:18;102884.25;;;-4.36;100.00
20909;BME280;10614;53.198;6.570;2022-12-18T03:35:23;102886.03;;;-4.35;100.00
20909;BME280;10614;53.198;6.570;2022-12-18T03:37:27;102886.72;;;-4.38;100.00
20909;BME280;10614;53.198;6.570;2022-12-18T03:39:28;102878.25;;;-4.37;100.00
20909;BME280;10614;53.198;6.570;2022-12-18T03:41:32;102878.97;;;-4.39;100.00
20909;BME280;10614;53.198;6.570;2022-12-18T03:43:41;102890.13;;;-4.39;100.00
20909;BME280;10614;53.198;6.570;2022-12-18T03:45:51;102884.00;;;-4.41;100.00
20909;BME280;10614;53.198;6.570;2022-12-18T03:48:02;102889.16;;;-4.41;100.00
20909;BME280;10614;53.198;6.570;2022-12-18T03:50:11;102885.59;;;-4.43;100.00
20909;BME280;10614;53.198;6.570;2022-12-18T03:52:19;102884.81;;;-4.42;100.00
20909;BME280;10614;53.198;6.570;2022-12-18T03:54:23;102886.41;;;-4.44;100.00
20909;BME280;10614;53.198;6.570;2022-12-18T03:56:26;102885.44;;;-4.46;100.00
20909;BME280;10614;53.198;6.570;2022-12-18T03:58:32;102883.69;;;-4.47;100.00
20909;BME280;10614;53.198;6.570;2022-12-18T04:00:35;102877.59;;;-4.49;100.00
20909;BME280;10614;53.198;6.570;2022-12-18T04:02:39;102881.81;;;-4.50;100.00
20909;BME280;10614;53.198;6.570;2022-12-18T04:04:44;102874.09;;;-4.50;100.00
20909;BME280;10614;53.198;6.570;2022-12-18T04:06:48;102869.78;;;-4.51;100.00
20909;BME280;10614;53.198;6.570;2022-12-18T04:08:51;102870.50;;;-4.53;100.00
20909;BME280;10614;53.198;6.570;2022-12-18T04:10:53;102874.81;;;-4.52;100.00
20909;BME280;10614;53.198;6.570;2022-12-18T04:12:56;102872.19;;;-4.54;100.00
20909;BME280;10614;53.198;6.570;2022-12-18T04:14:58;102872.19;;;-4.54;100.00
20909;BME280;10614;53.198;6.570;2022-12-18T04:17:00;102878.06;;;-4.56;100.00
20909;BME280;10614;53.198;6.570;2022-12-18T04:19:02;102879.81;;;-4.55;100.00
20909;BME280;10614;53.198;6.570;2022-12-18T04:21:05;102880.53;;;-4.58;100.00
20909;BME280;10614;53.198;6.570;2022-12-18T04:23:06;102886.53;;;-4.57;100.00
20909;BME280;10614;53.198;6.570;2022-12-18T04:25:08;102882.94;;;-4.61;100.00
20909;BME280;10614;53.198;6.570;2022-12-18T04:27:10;102887.00;;;-4.64;100.00
20909;BME280;10614;53.198;6.570;2022-12-18T04:29:12;102877.28;;;-4.70;100.00
20909;BME280;10614;53.198;6.570;2022-12-18T04:31:14;102881.63;;;-4.69;100.00
20909;BME280;10614;53.198;6.570;2022-12-18T04:33:16;102891.91;;;-4.69;100.00
20909;BME280;10614;53.198;6.570;2022-12-18T04:35:18;102891.91;;;-4.69;100.00
20909;BME280;10614;53.198;6.570;2022-12-18T04:37:21;102886.66;;;-4.71;100.00
20909;BME280;10614;53.198;6.570;2022-12-18T04:39:23;102892.63;;;-4.72;100.00
20909;BME280;10614;53.198;6.570;2022-12-18T04:41:24;102900.22;;;-4.73;100.00
20909;BME280;10614;53.198;6.570;2022-12-18T04:43:26;102902.72;;;-4.75;100.00
20909;BME280;10614;53.198;6.570;2022-12-18T04:45:29;102897.50;;;-4.76;100.00
20909;BME280;10614;53.198;6.570;2022-12-18T04:47:31;102888.91;;;-4.77;100.00
20909;BME280;10614;53.198;6.570;2022-12-18T04:49:33;102887.94;;;-4.79;100.00
20909;BME280;10614;53.198;6.570;2022-12-18T04:51:34;102871.44;;;-4.82;100.00
20909;BME280;10614;53.198;6.570;2022-12-18T04:53:37;102879.16;;;-4.82;100.00
20909;BME280;10614;53.198;6.570;2022-12-18T04:55:39;102870.56;;;-4.83;100.00
20909;BME280;10614;53.198;6.570;2022-12-18T04:57:41;102883.41;;;-4.83;100.00
20909;BME280;10614;53.198;6.570;2022-12-18T04:59:42;102878.91;;;-4.87;100.00
20909;BME280;10614;53.198;6.570;2022-12-18T05:01:44;102884.13;;;-4.85;100.00
20909;BME280;10614;53.198;6.570;2022-12-18T05:03:46;102899.53;;;-4.85;100.00
20909;BME280;10614;53.198;6.570;2022-12-18T05:05:49;102889.19;;;-4.87;100.00
20909;BME280;10614;53.198;6.570;2022-12-18T05:07:51;102894.25;;;-4.89;100.00
20909;BME280;10614;53.198;6.570;2022-12-18T05:09:54;102899.44;;;-4.87;100.00
20909;BME280;10614;53.198;6.570;2022-12-18T05:11:55;102890.72;;;-4.91;100.00
20909;BME280;10614;53.198;6.570;2022-12-18T05:13:57;102893.28;;;-4.91;100.00
20909;BME280;10614;53.198;6.570;2022-12-18T05:15:59;102900.88;;;-4.92;100.00
20909;BME280;10614;53.198;6.570;2022-12-18T05:18:01;102899.13;;;-4.93;100.00
20909;BME280;10614;53.198;6.570;2022-12-18T05:20:04;102904.25;;;-4.93;100.00
20909;BME280;10614;53.198;6.570;2022-12-18T05:22:06;102898.78;;;-4.99;100.00
20909;BME280;10614;53.198;6.570;2022-12-18T05:24:09;102910.91;;;-4.97;100.00
20909;BME280;10614;53.198;6.570;2022-12-18T05:26:15;102909.25;;;-4.96;100.00
20909;BME280;10614;53.198;6.570;2022-12-18T05:28:17;102902.22;;;-4.99;100.00
20909;BME280;10614;53.198;6.570;2022-12-18T05:30:19;102905.59;;;-5.00;100.00
20909;BME280;10614;53.198;6.570;2022-12-18T05:32:21;102908.88;;;-5.02;100.00
20909;BME280;10614;53.198;6.570;2022-12-18T05:34:22;102901.06;;;-5.04;100.00
20909;BME280;10614;53.198;6.570;2022-12-18T05:36:24;102900.09;;;-5.06;100.00
20909;BME280;10614;53.198;6.570;2022-12-18T05:38:26;102903.38;;;-5.09;100.00
20909;BME280;10614;53.198;6.570;2022-12-18T05:40:28;102899.84;;;-5.11;100.00
20909;BME280;10614;53.198;6.570;2022-12-18T05:42:31;102897.09;;;-5.14;100.00
20909;BME280;10614;53.198;6.570;2022-12-18T05:44:33;102906.59;;;-5.13;100.00
20909;BME280;10614;53.198;6.570;2022-12-18T05:46:36;102889.13;;;-5.18;100.00
20909;BME280;10614;53.198;6.570;2022-12-18T05:48:37;102907.28;;;-5.15;100.00
20909;BME280;10614;53.198;6.570;2022-12-18T05:50:40;102898.69;;;-5.16;100.00
20909;BME280;10614;53.198;6.570;2022-12-18T05:52:42;102905.41;;;-5.18;100.00
20909;BME280;10614;53.198;6.570;2022-12-18T05:54:44;102910.38;;;-5.21;100.00
20909;BME280;10614;53.198;6.570;2022-12-18T05:56:45;102918.97;;;-5.20;100.00
20909;BME280;10614;53.198;6.570;2022-12-18T05:58:51;102921.47;;;-5.22;100.00
20909;BME280;10614;53.198;6.570;2022-12-18T06:00:53;102925.63;;;-5.24;100.00
20909;BME280;10614;53.198;6.570;2022-12-18T06:02:54;102930.75;;;-5.24;100.00
20909;BME280;10614;53.198;6.570;2022-12-18T06:04:56;102921.28;;;-5.25;100.00
20909;BME280;10614;53.198;6.570;2022-12-18T06:06:58;102936.78;;;-5.23;100.00
20909;BME280;10614;53.198;6.570;2022-12-18T06:09:00;102945.28;;;-5.24;100.00
20909;BME280;10614;53.198;6.570;2022-12-18T06:11:01;102947.84;;;-5.24;100.00
20909;BME280;10614;53.198;6.570;2022-12-18T06:13:04;102945.19;;;-5.26;100.00
20909;BME280;10614;53.198;6.570;2022-12-18T06:15:08;102945.19;;;-5.26;100.00
20909;BME280;10614;53.198;6.570;2022-12-18T06:17:09;102947.59;;;-5.29;100.00
20909;BME280;10614;53.198;6.570;2022-12-18T06:19:14;102952.63;;;-5.31;100.00
20909;BME280;10614;53.198;6.570;2022-12-18T06:21:16;102962.06;;;-5.30;100.00
20909;BME280;10614;53.198;6.570;2022-12-18T06:23:18;102955.88;;;-5.33;100.00
20909;BME280;10614;53.198;6.570;2022-12-18T06:25:19;102955.19;;;-5.31;100.00
20909;BME280;10614;53.198;6.570;2022-12-18T06:27:21;102950.81;;;-5.32;100.00
20909;BME280;10614;53.198;6.570;2022-12-18T06:29:23;102943.94;;;-5.33;100.00
20909;BME280;10614;53.198;6.570;2022-12-18T06:31:26;102943.94;;;-5.33;100.00
20909;BME280;10614;53.198;6.570;2022-12-18T06:33:28;102942.94;;;-5.35;100.00
20909;BME280;10614;53.198;6.570;2022-12-18T06:35:31;102946.41;;;-5.34;100.00
20909;BME280;10614;53.198;6.570;2022-12-18T06:37:33;102938.63;;;-5.36;100.00
20909;BME280;10614;53.198;6.570;2022-12-18T06:39:35;102935.16;;;-5.36;100.00
20909;BME280;10614;53.198;6.570;2022-12-18T06:41:36;102936.84;;;-5.37;100.00
20909;BME280;10614;53.198;6.570;2022-12-18T06:43:38;102930.84;;;-5.37;100.00
20909;BME280;10614;53.198;6.570;2022-12-18T06:45:40;102923.84;;;-5.40;100.00
20909;BME280;10614;53.198;6.570;2022-12-18T06:47:43;102921.09;;;-5.43;100.00
20909;BME280;10614;53.198;6.570;2022-12-18T06:49:45;102914.88;;;-5.46;100.00
20909;BME280;10614;53.198;6.570;2022-12-18T06:51:47;102899.31;;;-5.49;100.00
20909;BME280;10614;53.198;6.570;2022-12-18T06:53:49;102908.00;;;-5.47;100.00
20909;BME280;10614;53.198;6.570;2022-12-18T06:55:51;102914.72;;;-5.49;100.00
20909;BME280;10614;53.198;6.570;2022-12-18T06:57:52;102918.06;;;-5.51;100.00
20909;BME280;10614;53.198;6.570;2022-12-18T06:59:54;102910.28;;;-5.52;100.00
20909;BME280;10614;53.198;6.570;2022-12-18T07:01:56;102904.25;;;-5.53;100.00
20909;BME280;10614;53.198;6.570;2022-12-18T07:03:59;102911.00;;;-5.55;100.00
20909;BME280;10614;53.198;6.570;2022-12-18T07:06:00;102901.50;;;-5.56;100.00
20909;BME280;10614;53.198;6.570;2022-12-18T07:08:02;102904.88;;;-5.57;100.00
20909;BME280;10614;53.198;6.570;2022-12-18T07:10:05;102907.47;;;-5.57;100.00
20909;BME280;10614;53.198;6.570;2022-12-18T07:12:06;102904.00;;;-5.57;100.00
20909;BME280;10614;53.198;6.570;2022-12-18T07:14:08;102895.22;;;-5.61;100.00
20909;BME280;10614;53.198;6.570;2022-12-18T07:16:11;102896.31;;;-5.57;100.00
20909;BME280;10614;53.198;6.570;2022-12-18T07:18:14;102887.63;;;-5.59;100.00
20909;BME280;10614;53.198;6.570;2022-12-18T07:20:17;102888.34;;;-5.62;100.00
20909;BME280;10614;53.198;6.570;2022-12-18T07:22:19;102883.13;;;-5.63;100.00
20909;BME280;10614;53.198;6.570;2022-12-18T07:24:21;102879.66;;;-5.64;100.00
20909;BME280;10614;53.198;6.570;2022-12-18T07:26:23;102878.69;;;-5.66;100.00
20909;BME280;10614;53.198;6.570;2022-12-18T07:28:25;102881.44;;;-5.63;100.00
20909;BME280;10614;53.198;6.570;2022-12-18T07:30:28;102879.66;;;-5.64;100.00
20909;BME280;10614;53.198;6.570;2022-12-18T07:32:30;102871.97;;;-5.64;100.00
20909;BME280;10614;53.198;6.570;2022-12-18T07:34:32;102878.84;;;-5.63;100.00
20909;BME280;10614;53.198;6.570;2022-12-18T07:36:35;102881.31;;;-5.64;100.00
20909;BME280;10614;53.198;6.570;2022-12-18T07:38:37;102884.00;;;-5.63;100.00
20909;BME280;10614;53.198;6.570;2022-12-18T07:40:38;102877.09;;;-5.64;100.00
20909;BME280;10614;53.198;6.570;2022-12-18T07:42:40;102880.53;;;-5.63;100.00
20909;BME280;10614;53.198;6.570;2022-12-18T07:44:42;102886.44;;;-5.64;100.00
20909;BME280;10614;53.198;6.570;2022-12-18T07:46:43;102884.81;;;-5.64;100.00
20909;BME280;10614;53.198;6.570;2022-12-18T07:48:45;102880.53;;;-5.63;100.00
20909;BME280;10614;53.198;6.570;2022-12-18T07:50:47;102884.81;;;-5.64;100.00
20909;BME280;10614;53.198;6.570;2022-12-18T07:52:50;102884.81;;;-5.64;100.00
20909;BME280;10614;53.198;6.570;2022-12-18T07:54:52;102887.38;;;-5.64;100.00
20909;BME280;10614;53.198;6.570;2022-12-18T07:56:54;102890.72;;;-5.65;100.00
20909;BME280;10614;53.198;6.570;2022-12-18T07:58:55;102895.06;;;-5.64;100.00
20909;BME280;10614;53.198;6.570;2022-12-18T08:01:02;102898.41;;;-5.65;100.00
20909;BME280;10614;53.198;6.570;2022-12-18T08:03:04;102906.47;;;-5.59;100.00
20909;BME280;10614;53.198;6.570;2022-12-18T08:05:06;102900.47;;;-5.59;100.00
20909;BME280;10614;53.198;6.570;2022-12-18T08:07:09;102895.41;;;-5.58;100.00
20909;BME280;10614;53.198;6.570;2022-12-18T08:09:13;102896.38;;;-5.56;100.00
20909;BME280;10614;53.198;6.570;2022-12-18T08:11:15;102895.59;;;-5.55;100.00
20909;BME280;10614;53.198;6.570;2022-12-18T08:13:16;102898.16;;;-5.55;100.00
20909;BME280;10614;53.198;6.570;2022-12-18T08:15:18;102878.53;;;-5.54;100.00
20909;BME280;10614;53.198;6.570;2022-12-18T08:17:22;102878.69;;;-5.51;100.00
20909;BME280;10614;53.198;6.570;2022-12-18T08:19:24;102871.88;;;-5.51;100.00
20909;BME280;10614;53.198;6.570;2022-12-18T08:21:27;102873.66;;;-5.49;100.00
20909;BME280;10614;53.198;6.570;2022-12-18T08:23:29;102873.56;;;-5.51;100.00
20909;BME280;10614;53.198;6.570;2022-12-18T08:25:33;102876.50;;;-5.45;100.00
20909;BME280;10614;53.198;6.570;2022-12-18T08:27:35;102867.09;;;-5.44;100.00
20909;BME280;10614;53.198;6.570;2022-12-18T08:29:37;102864.44;;;-5.46;100.00
20909;BME280;10614;53.198;6.570;2022-12-18T08:31:38;102872.41;;;-5.41;100.00
20909;BME280;10614;53.198;6.570;2022-12-18T08:33:48;102871.53;;;-5.42;100.00
20909;BME280;10614;53.198;6.570;2022-12-18T08:35:50;102877.53;;;-5.41;100.00
20909;BME280;10614;53.198;6.570;2022-12-18T08:37:51;102883.75;;;-5.38;100.00
20909;BME280;10614;53.198;6.570;2022-12-18T08:39:53;102872.41;;;-5.41;100.00
20909;BME280;10614;53.198;6.570;2022-12-18T08:41:57;102889.94;;;-5.34;100.00
20909;BME280;10614;53.198;6.570;2022-12-18T08:44:16;102884.72;;;-5.36;100.00
20909;BME280;10614;53.198;6.570;2022-12-18T08:46:37;102896.75;;;-5.35;100.00
20909;BME280;10614;53.198;6.570;2022-12-18T08:48:39;102884.53;;;-5.39;100.00
20909;BME280;10614;53.198;6.570;2022-12-18T08:50:41;102892.22;;;-5.39;100.00
20909;BME280;10614;53.198;6.570;2022-12-18T08:52:42;102903.41;;;-5.38;100.00
20909;BME280;10614;53.198;6.570;2022-12-18T08:54:44;102909.31;;;-5.39;100.00
20909;BME280;10614;53.198;6.570;2022-12-18T08:56:46;102901.56;;;-5.41;100.00
20909;BME280;10614;53.198;6.570;2022-12-18T08:58:51;102917.00;;;-5.39;100.00
20909;BME280;10614;53.198;6.570;2022-12-18T09:00:53;102907.09;;;-5.48;100.00
20909;BME280;10614;53.198;6.570;2022-12-18T09:02:55;102917.81;;;-5.40;100.00
20909;BME280;10614;53.198;6.570;2022-12-18T09:04:57;102914.38;;;-5.41;100.00
20909;BME280;10614;53.198;6.570;2022-12-18T09:06:58;102914.28;;;-5.42;100.00
20909;BME280;10614;53.198;6.570;2022-12-18T09:09:00;102914.44;;;-5.39;100.00
20909;BME280;10614;53.198;6.570;2022-12-18T09:11:02;102913.56;;;-5.40;100.00
20909;BME280;10614;53.198;6.570;2022-12-18T09:13:04;102911.88;;;-5.39;100.00
20909;BME280;10614;53.198;6.570;2022-12-18T09:15:09;102910.19;;;-5.39;100.00
20909;BME280;10614;53.198;6.570;2022-12-18T09:17:10;102908.59;;;-5.37;100.00
20909;BME280;10614;53.198;6.570;2022-12-18T09:19:12;102907.91;;;-5.34;100.00
20909;BME280;10614;53.198;6.570;2022-12-18T09:21:17;102916.56;;;-5.32;100.00
20909;BME280;10614;53.198;6.570;2022-12-18T09:23:19;102904.63;;;-5.32;100.00
20909;BME280;10614;53.198;6.570;2022-12-18T09:25:21;102904.72;;;-5.30;100.00
20909;BME280;10614;53.198;6.570;2022-12-18T09:27:22;102896.13;;;-5.31;100.00
20909;BME280;10614;53.198;6.570;2022-12-18T09:29:25;102904.88;;;-5.27;100.00
20909;BME280;10614;53.198;6.570;2022-12-18T09:31:29;102897.19;;;-5.27;100.00
20909;BME280;10614;53.198;6.570;2022-12-18T09:33:30;102905.09;;;-5.24;100.00
20909;BME280;10614;53.198;6.570;2022-12-18T09:35:32;102897.44;;;-5.22;100.00
20909;BME280;10614;53.198;6.570;2022-12-18T09:37:34;102880.28;;;-5.23;100.00
20909;BME280;10614;53.198;6.570;2022-12-18T09:39:36;102878.09;;;-5.17;100.00
20909;BME280;10614;53.198;6.570;2022-12-18T09:41:45;102874.88;;;-5.13;100.00
20909;BME280;10614;53.198;6.570;2022-12-18T09:43:50;102860.38;;;-5.13;100.00
20909;BME280;10614;53.198;6.570;2022-12-18T09:45:55;102871.84;;;-5.06;100.00
20909;BME280;10614;53.198;6.570;2022-12-18T09:48:05;102874.63;;;-5.03;100.00
20909;BME280;10614;53.198;6.570;2022-12-18T09:50:23;102880.00;;;-4.98;100.00
20909;BME280;10614;53.198;6.570;2022-12-18T09:52:28;102876.72;;;-4.96;100.00
20909;BME280;10614;53.198;6.570;2022-12-18T09:54:35;102875.91;;;-4.95;100.00
20909;BME280;10614;53.198;6.570;2022-12-18T09:56:41;102881.25;;;-4.92;100.00
20909;BME280;10614;53.198;6.570;2022-12-18T09:58:47;102873.53;;;-4.92;100.00
20909;BME280;10614;53.198;6.570;2022-12-18T10:00:51;102862.53;;;-4.89;100.00
20909;BME280;10614;53.198;6.570;2022-12-18T10:02:56;102870.31;;;-4.88;100.00
20909;BME280;10614;53.198;6.570;2022-12-18T10:05:07;102872.88;;;-4.88;100.00
20909;BME280;10614;53.198;6.570;2022-12-18T10:07:17;102878.28;;;-4.83;100.00
20909;BME280;10614;53.198;6.570;2022-12-18T10:09:27;102863.69;;;-4.84;100.00
20909;BME280;10614;53.198;6.570;2022-12-18T10:11:39;102865.69;;;-4.78;100.00
20909;BME280;10614;53.198;6.570;2022-12-18T10:13:49;102854.53;;;-4.79;100.00
20909;BME280;10614;53.198;6.570;2022-12-18T10:16:07;102852.13;;;-4.76;100.00
20909;BME280;10614;53.198;6.570;2022-12-18T10:18:21;102840.88;;;-4.78;100.00
20909;BME280;10614;53.198;6.570;2022-12-18T10:20:32;102851.59;;;-4.70;100.00
20909;BME280;10614;53.198;6.570;2022-12-18T10:22:48;102847.50;;;-4.67;100.00
20909;BME280;10614;53.198;6.570;2022-12-18T10:24:56;102842.19;;;-4.70;100.00
20909;BME280;10614;53.198;6.570;2022-12-18T10:27:11;102848.72;;;-4.60;100.00
20909;BME280;10614;53.198;6.570;2022-12-18T10:29:15;102842.94;;;-4.56;100.00
20909;BME280;10614;53.198;6.570;2022-12-18T10:31:19;102839.41;;;-4.58;100.00
20909;BME280;10614;53.198;6.570;2022-12-18T10:33:22;102844.16;;;-4.49;100.00
20909;BME280;10614;53.198;6.570;2022-12-18T10:35:27;102833.06;;;-4.48;100.00
20909;BME280;10614;53.198;6.570;2022-12-18T10:37:29;102831.47;;;-4.46;100.00
20909;BME280;10614;53.198;6.570;2022-12-18T10:39:31;102831.72;;;-4.41;100.00